地図

経路データ

SID SEASON NUMBER BASIN SUBBASIN NAME ISO_TIME NATURE LAT LON WMO_WIND WMO_PRES WMO_AGENCY TRACK_TYPE DIST2LAND LANDFALL IFLAG USA_AGENCY USA_ATCF_ID USA_LAT USA_LON USA_RECORD USA_STATUS USA_WIND USA_PRES USA_SSHS USA_R34_NE USA_R34_SE USA_R34_SW USA_R34_NW USA_R50_NE USA_R50_SE USA_R50_SW USA_R50_NW USA_R64_NE USA_R64_SE USA_R64_SW USA_R64_NW USA_POCI USA_ROCI USA_RMW USA_EYE TOKYO_LAT TOKYO_LON TOKYO_GRADE TOKYO_WIND TOKYO_PRES TOKYO_R50_DIR TOKYO_R50_LONG TOKYO_R50_SHORT TOKYO_R30_DIR TOKYO_R30_LONG TOKYO_R30_SHORT TOKYO_LAND CMA_LAT CMA_LON CMA_CAT CMA_WIND CMA_PRES HKO_LAT HKO_LON HKO_CAT HKO_WIND HKO_PRES NEWDELHI_LAT NEWDELHI_LON NEWDELHI_GRADE NEWDELHI_WIND NEWDELHI_PRES NEWDELHI_CI NEWDELHI_DP NEWDELHI_POCI REUNION_LAT REUNION_LON REUNION_TYPE REUNION_WIND REUNION_PRES REUNION_TNUM REUNION_CI REUNION_RMW REUNION_R34_NE REUNION_R34_SE REUNION_R34_SW REUNION_R34_NW REUNION_R50_NE REUNION_R50_SE REUNION_R50_SW REUNION_R50_NW REUNION_R64_NE REUNION_R64_SE REUNION_R64_SW REUNION_R64_NW BOM_LAT BOM_LON BOM_TYPE BOM_WIND BOM_PRES BOM_TNUM BOM_CI BOM_RMW BOM_R34_NE BOM_R34_SE BOM_R34_SW BOM_R34_NW BOM_R50_NE BOM_R50_SE BOM_R50_SW BOM_R50_NW BOM_R64_NE BOM_R64_SE BOM_R64_SW BOM_R64_NW BOM_ROCI BOM_POCI BOM_EYE BOM_POS_METHOD BOM_PRES_METHOD NADI_LAT NADI_LON NADI_CAT NADI_WIND NADI_PRES WELLINGTON_LAT WELLINGTON_LON WELLINGTON_WIND WELLINGTON_PRES DS824_LAT DS824_LON DS824_STAGE DS824_WIND DS824_PRES TD9636_LAT TD9636_LON TD9636_STAGE TD9636_WIND TD9636_PRES TD9635_LAT TD9635_LON TD9635_WIND TD9635_PRES TD9635_ROCI NEUMANN_LAT NEUMANN_LON NEUMANN_CLASS NEUMANN_WIND NEUMANN_PRES MLC_LAT MLC_LON MLC_CLASS MLC_WIND MLC_PRES USA_GUST BOM_GUST BOM_GUST_PER REUNION_GUST REUNION_GUST_PER USA_SEAHGT USA_SEARAD_NE USA_SEARAD_SE USA_SEARAD_SW USA_SEARAD_NW STORM_SPEED STORM_DIR
1891320N13126 1891 59 WP MM NOT_NAMED 1891-11-15 16:00:00 NR 13.1000 125.500 main 74 39 __________O___ -1 13.1000 125.500 7 28 282
1891320N13126 1891 59 WP MM NOT_NAMED 1891-11-15 18:00:00 NR 13.3017 124.548 main 39 0 __________P___ -1 13.3017 124.548 7 28 282
1891320N13126 1891 59 WP MM NOT_NAMED 1891-11-15 21:00:00 NR 13.5937 123.169 main 0 0 __________P___ -1 13.5937 123.169 7 26 283
1891320N13126 1891 59 WP MM NOT_NAMED 1891-11-16 00:00:00 NR 13.8681 121.920 main 10 0 __________P___ -1 13.8681 121.920 7 23 283
1891320N13126 1891 59 WP MM NOT_NAMED 1891-11-16 03:00:00 NR 14.1210 120.884 main 0 0 __________P___ -1 14.1210 120.884 7 20 285
1891320N13126 1891 59 WP MM NOT_NAMED 1891-11-16 04:00:00 NR 14.2000 120.600 main 0 0 __________O___ -1 14.2000 120.600 3 15 287
1891320N13126 1891 59 WP MM NOT_NAMED 1891-11-16 06:00:00 NR 14.3506 120.133 main 34 34 __________P___ -1 14.3506 120.133 3 12 291
1891320N13126 1891 59 WP MM NOT_NAMED 1891-11-16 09:00:00 NR 14.5663 119.635 main 58 58 __________P___ -1 14.5663 119.635 3 9 298
1891320N13126 1891 59 WP MM NOT_NAMED 1891-11-16 12:00:00 NR 14.7835 119.291 main 86 86 __________P___ -1 14.7835 119.291 3 8 306
1891320N13126 1891 59 WP MM NOT_NAMED 1891-11-16 15:00:00 NR 15.0165 119.002 main 106 102 __________P___ -1 15.0165 119.002 3 7 310
1891320N13126 1891 59 WP MM NOT_NAMED 1891-11-16 16:00:00 NR 15.1000 118.900 main 112 112 __________O___ -1 15.1000 118.900 4 10 306
1891320N13126 1891 59 WP MM NOT_NAMED 1891-11-16 18:00:00 NR 15.3119 118.586 main 139 139 __________P___ -1 15.3119 118.586 4 11 306
1891320N13126 1891 59 WP MM NOT_NAMED 1891-11-16 21:00:00 NR 15.6493 118.113 main 177 174 __________P___ -1 15.6493 118.113 4 11 307
1891320N13126 1891 59 WP MM NOT_NAMED 1891-11-17 00:00:00 NR 15.9710 117.673 main 213 224 __________P___ -1 15.9710 117.673 4 10 307
1891320N13126 1891 59 WP MM NOT_NAMED 1891-11-17 03:00:00 NR 16.2333 117.302 main 257 257 __________P___ -1 16.2333 117.302 4 8 306
1891320N13126 1891 59 WP MM NOT_NAMED 1891-11-17 04:00:00 NR 16.3000 117.200 main 269 269 __________O___ -1 16.3000 117.200 4 6 301
1891320N13126 1891 59 WP MM NOT_NAMED 1891-11-17 06:00:00 NR 16.3817 117.042 main 291 291 __________P___ -1 16.3817 117.042 4 4 294
1891320N13126 1891 59 WP MM NOT_NAMED 1891-11-17 09:00:00 NR 16.4353 116.882 main 302 302 __________P___ -1 16.4353 116.882 4 3 282
1891320N13126 1891 59 WP MM NOT_NAMED 1891-11-17 12:00:00 NR 16.4339 116.785 main 312 312 __________P___ -1 16.4339 116.785 4 2 260
1891320N13126 1891 59 WP MM NOT_NAMED 1891-11-17 15:00:00 NR 16.4084 116.720 main 323 323 __________P___ -1 16.4084 116.720 4 1 247
1891320N13126 1891 59 WP MM NOT_NAMED 1891-11-17 16:00:00 NR 16.4000 116.700 main 323 323 __________O___ -1 16.4000 116.700 4 2 270
1891320N13126 1891 59 WP MM NOT_NAMED 1891-11-17 18:00:00 NR 16.4083 116.639 main 334 334 __________P___ -1 16.4083 116.639 4 2 276
1891320N13126 1891 59 WP MM NOT_NAMED 1891-11-17 21:00:00 NR 16.4145 116.559 main 334 334 __________P___ -1 16.4145 116.559 4 1 272
1891320N13126 1891 59 WP MM NOT_NAMED 1891-11-18 00:00:00 NR 16.4133 116.489 main 344 344 __________P___ -1 16.4133 116.489 4 1 266
1891320N13126 1891 59 WP MM NOT_NAMED 1891-11-18 03:00:00 NR 16.4046 116.423 main 355 355 __________P___ -1 16.4046 116.423 4 1 261
1891320N13126 1891 59 WP MM NOT_NAMED 1891-11-18 04:00:00 NR 16.4000 116.400 main 355 355 __________O___ -1 16.4000 116.400 4 1 257
1891320N13126 1891 59 WP MM NOT_NAMED 1891-11-18 06:00:00 NR 16.3890 116.355 main 355 355 __________P___ -1 16.3890 116.355 4 1 252
1891320N13126 1891 59 WP MM NOT_NAMED 1891-11-18 09:00:00 NR 16.3663 116.288 main 365 365 __________P___ -1 16.3663 116.288 4 1 249
1891320N13126 1891 59 WP MM NOT_NAMED 1891-11-18 12:00:00 NR 16.3387 116.216 main 375 375 __________P___ -1 16.3387 116.216 4 2 249
1891320N13126 1891 59 WP MM NOT_NAMED 1891-11-18 15:00:00 NR 16.3095 116.132 main 386 386 __________P___ -1 16.3095 116.132 4 2 251
1891320N13126 1891 59 WP MM NOT_NAMED 1891-11-18 16:00:00 NR 16.3000 116.100 main 386 386 __________O___ -1 16.3000 116.100 7 2 257
1891320N13126 1891 59 WP MM NOT_NAMED 1891-11-18 18:00:00 NR 16.2860 116.023 main 396 396 __________P___ -1 16.2860 116.023 7 2 260
1891320N13126 1891 59 WP MM NOT_NAMED 1891-11-18 21:00:00 NR 16.2650 115.894 main 407 407 __________P___ -1 16.2650 115.894 7 3 260
1891320N13126 1891 59 WP MM NOT_NAMED 1891-11-19 00:00:00 NR 16.2413 115.762 main 417 417 __________P___ -1 16.2413 115.762 7 3 258
1891320N13126 1891 59 WP MM NOT_NAMED 1891-11-19 03:00:00 NR 16.2117 115.637 main 438 438 __________P___ -1 16.2117 115.637 7 2 255
1891320N13126 1891 59 WP MM NOT_NAMED 1891-11-19 04:00:00 NR 16.2000 115.600 main 438 438 __________O___ -1 16.2000 115.600 7 2 246
1891320N13126 1891 59 WP MM NOT_NAMED 1891-11-19 06:00:00 NR 16.1723 115.541 main 449 449 __________P___ -1 16.1723 115.541 7 2 241
1891320N13126 1891 59 WP MM NOT_NAMED 1891-11-19 09:00:00 NR 16.1246 115.466 main 449 449 __________P___ -1 16.1246 115.466 7 2 233
1891320N13126 1891 59 WP MM NOT_NAMED 1891-11-19 12:00:00 NR 16.0720 115.397 main 459 459 __________P___ -1 16.0720 115.397 7 2 232
1891320N13126 1891 59 WP MM NOT_NAMED 1891-11-19 15:00:00 NR 16.0179 115.326 main 470 470 __________P___ -1 16.0179 115.326 7 2 233
1891320N13126 1891 59 WP MM NOT_NAMED 1891-11-19 16:00:00 NR 16.0000 115.300 main 470 470 __________O___ -1 16.0000 115.300 7 2 241
1891320N13126 1891 59 WP MM NOT_NAMED 1891-11-19 18:00:00 NR 15.9667 115.236 main 481 481 __________P___ -1 15.9667 115.236 7 2 242
1891320N13126 1891 59 WP MM NOT_NAMED 1891-11-19 21:00:00 NR 15.9167 115.135 main 492 492 __________P___ -1 15.9167 115.135 7 2 243
1891320N13126 1891 59 WP MM NOT_NAMED 1891-11-20 00:00:00 NR 15.8667 115.031 main 502 502 __________P___ -1 15.8667 115.031 7 2 243
1891320N13126 1891 59 WP MM NOT_NAMED 1891-11-20 03:00:00 NR 15.8167 114.931 main 513 513 __________P___ -1 15.8167 114.931 7 2 242
1891320N13126 1891 59 WP MM NOT_NAMED 1891-11-20 04:00:00 NR 15.8000 114.900 main 513 513 __________O___ -1 15.8000 114.900 7 2 241
1891320N13126 1891 59 WP MM NOT_NAMED 1891-11-20 06:00:00 NR 15.7693 114.842 main 524 524 __________P___ -1 15.7693 114.842 7 2 241
1891320N13126 1891 59 WP MM NOT_NAMED 1891-11-20 09:00:00 NR 15.7233 114.760 main 525 525 __________P___ -1 15.7233 114.760 7 2 238
1891320N13126 1891 59 WP MM NOT_NAMED 1891-11-20 12:00:00 NR 15.6746 114.687 main 536 536 __________P___ -1 15.6746 114.687 7 2 233
1891320N13126 1891 59 WP MM NOT_NAMED 1891-11-20 15:00:00 NR 15.6200 114.620 main 547 547 __________P___ -1 15.6200 114.620 7 2 228
1891320N13126 1891 59 WP MM NOT_NAMED 1891-11-20 16:00:00 NR 15.6000 114.600 main 547 547 __________O___ -1 15.6000 114.600 7 2 222
1891320N13126 1891 59 WP MM NOT_NAMED 1891-11-20 18:00:00 NR 15.5610 114.556 main 547 547 __________P___ -1 15.5610 114.556 7 2 223
1891320N13126 1891 59 WP MM NOT_NAMED 1891-11-20 21:00:00 NR 15.4962 114.495 main 559 559 __________P___ -1 15.4962 114.495 7 2 216
1891320N13126 1891 59 WP MM NOT_NAMED 1891-11-21 00:00:00 NR 15.4212 114.445 main 562 562 __________P___ -1 15.4212 114.445 7 2 206
1891320N13126 1891 59 WP MM NOT_NAMED 1891-11-21 03:00:00 NR 15.3329 114.409 main 570 570 __________P___ -1 15.3329 114.409 7 2 194
1891320N13126 1891 59 WP MM NOT_NAMED 1891-11-21 04:00:00 NR 15.3000 114.400 main 570 568 __________O___ -1 15.3000 114.400 7 2 190
1891320N13126 1891 59 WP MM NOT_NAMED 1891-11-21 06:00:00 NR 15.2228 114.386 main 568 565 __________P___ -1 15.2228 114.386 7 2 0
1891320N13126 1891 59 WP MM NOT_NAMED 1891-11-21 09:00:00 NR 15.0944 114.377 main 565 563 __________P___ -1 15.0944 114.377 7 3 186
1891320N13126 1891 59 WP MM NOT_NAMED 1891-11-21 12:00:00 NR 14.9617 114.381 main 563 558 __________P___ -1 14.9617 114.381 7 3 0
1891320N13126 1891 59 WP MM NOT_NAMED 1891-11-21 15:00:00 NR 14.8374 114.394 main 558 558 __________P___ -1 14.8374 114.394 7 2 172
1891320N13126 1891 59 WP MM NOT_NAMED 1891-11-21 16:00:00 NR 14.8000 114.400 main 558 558 __________O___ -1 14.8000 114.400 7 1 0
1891320N13126 1891 59 WP MM NOT_NAMED 1891-11-21 18:00:00 NR 14.7648 114.411 main 558 557 __________P___ -1 14.7648 114.411 7 1 148
1891320N13126 1891 59 WP MM NOT_NAMED 1891-11-21 21:00:00 NR 14.7252 114.434 main 557 557 __________P___ -1 14.7252 114.434 7 1 150
1891320N13126 1891 59 WP MM NOT_NAMED 1891-11-22 00:00:00 NR 14.6681 114.461 main 567 566 __________P___ -1 14.6681 114.461 7 2 163
1891320N13126 1891 59 WP MM NOT_NAMED 1891-11-22 03:00:00 NR 14.5561 114.490 main 566 564 __________P___ -1 14.5561 114.490 7 3 167
1891320N13126 1891 59 WP MM NOT_NAMED 1891-11-22 04:00:00 NR 14.5000 114.500 main 564 562 __________O___ -1 14.5000 114.500 7 4 165
1891320N13126 1891 59 WP MM NOT_NAMED 1891-11-22 06:00:00 NR 14.3404 114.546 main 562 562 __________P___ -1 14.3404 114.546 7 6 167
1891320N13126 1891 59 WP MM NOT_NAMED 1891-11-22 09:00:00 NR 14.0379 114.615 main 565 561 __________P___ -1 14.0379 114.615 7 7 171
1891320N13126 1891 59 WP MM NOT_NAMED 1891-11-22 12:00:00 NR 13.6875 114.654 main 570 554 __________P___ -1 13.6875 114.654 7 7 178
1891320N13126 1891 59 WP MM NOT_NAMED 1891-11-22 15:00:00 NR 13.3206 114.629 main 554 553 __________P___ -1 13.3206 114.629 7 7 187
1891320N13126 1891 59 WP MM NOT_NAMED 1891-11-22 16:00:00 NR 13.2000 114.600 main 553 542 __________O___ -1 13.2000 114.600 7 8 201
1891320N13126 1891 59 WP MM NOT_NAMED 1891-11-22 18:00:00 NR 12.9546 114.488 main 542 521 __________P___ -1 12.9546 114.488 7 8 209
1891320N13126 1891 59 WP MM NOT_NAMED 1891-11-22 21:00:00 NR 12.5859 114.250 main 521 490 __________P___ -1 12.5859 114.250 7 9 216
1891320N13126 1891 59 WP MM NOT_NAMED 1891-11-23 00:00:00 NR 12.2467 113.969 main 491 461 __________P___ -1 12.2467 113.969 7 8 222
1891320N13126 1891 59 WP MM NOT_NAMED 1891-11-23 03:00:00 NR 11.9715 113.687 main 461 452 __________P___ -1 11.9715 113.687 7 8 226
1891320N13126 1891 59 WP MM NOT_NAMED 1891-11-23 04:00:00 NR 11.9000 113.600 main 452 441 __________O___ -1 11.9000 113.600 3 5 233
1891320N13126 1891 59 WP MM NOT_NAMED 1891-11-23 06:00:00 NR 11.8064 113.464 main 444 422 __________P___ -1 11.8064 113.464 3 4 242
1891320N13126 1891 59 WP MM NOT_NAMED 1891-11-23 09:00:00 NR 11.7355 113.278 main 425 404 __________P___ -1 11.7355 113.278 3 4 255
1891320N13126 1891 59 WP MM NOT_NAMED 1891-11-23 12:00:00 NR 11.7147 113.110 main 404 393 __________P___ -1 11.7147 113.110 3 3 265
1891320N13126 1891 59 WP MM NOT_NAMED 1891-11-23 15:00:00 NR 11.7065 112.951 main 393 383 __________P___ -1 11.7065 112.951 3 3 266
1891320N13126 1891 59 WP MM NOT_NAMED 1891-11-23 16:00:00 NR 11.7000 112.900 main 383 372 __________O___ -1 11.7000 112.900 4 3 249
1891320N13126 1891 59 WP MM NOT_NAMED 1891-11-23 18:00:00 NR 11.6607 112.829 main 372 365 __________P___ -1 11.6607 112.829 4 2 238
1891320N13126 1891 59 WP MM NOT_NAMED 1891-11-23 21:00:00 NR 11.5957 112.728 main 365 359 __________P___ -1 11.5957 112.728 4 3 239
1891320N13126 1891 59 WP MM NOT_NAMED 1891-11-24 00:00:00 NR 11.5207 112.598 main 359 338 __________P___ -1 11.5207 112.598 4 4 244
1891320N13126 1891 59 WP MM NOT_NAMED 1891-11-24 03:00:00 NR 11.4327 112.392 main 342 331 __________P___ -1 11.4327 112.392 4 5 247
1891320N13126 1891 59 WP MM NOT_NAMED 1891-11-24 04:00:00 NR 11.4000 112.300 main 331 310 __________O___ -1 11.4000 112.300 4 7 253
1891320N13126 1891 59 WP MM NOT_NAMED 1891-11-24 06:00:00 NR 11.3361 112.063 main 312 262 __________P___ -1 11.3361 112.063 4 8 255
1891320N13126 1891 59 WP MM NOT_NAMED 1891-11-24 09:00:00 NR 11.2277 111.625 main 262 215 __________P___ -1 11.2277 111.625 4 10 256
1891320N13126 1891 59 WP MM NOT_NAMED 1891-11-24 12:00:00 NR 11.1014 111.120 main 215 171 __________P___ -1 11.1014 111.120 4 11 255
1891320N13126 1891 59 WP MM NOT_NAMED 1891-11-24 15:00:00 NR 10.9542 110.581 main 171 158 __________P___ -1 10.9542 110.581 4 11 254
1891320N13126 1891 59 WP MM NOT_NAMED 1891-11-24 16:00:00 NR 10.9000 110.400 main 158 128 __________O___ -1 10.9000 110.400 4 11 252
1891320N13126 1891 59 WP MM NOT_NAMED 1891-11-24 18:00:00 NR 10.7837 110.041 main 128 104 __________P___ -1 10.7837 110.041 4 11 251
1891320N13126 1891 59 WP MM NOT_NAMED 1891-11-24 21:00:00 NR 10.5926 109.512 main 104 94 __________P___ -1 10.5926 109.512 4 11 249
1891320N13126 1891 59 WP MM NOT_NAMED 1891-11-25 00:00:00 NR 10.3869 108.990 main 94 78 __________P___ -1 10.3869 108.990 4 11 248
1891320N13126 1891 59 WP MM NOT_NAMED 1891-11-25 03:00:00 NR 10.1724 108.472 main 78 71 __________P___ -1 10.1724 108.472 4 11 247
1891320N13126 1891 59 WP MM NOT_NAMED 1891-11-25 04:00:00 NR 10.1000 108.300 main 74 __________O___ -1 10.1000 108.300 4 11 246

デジタル台風データ・検索

IBTrACS Databaseについて

本データベースは、米国NOAAが公開する1842年以降の世界の熱帯低気圧のベストトラックデータアーカイブInternational Best Track Archive for Climate Stewardship (IBTrACS)を、ウェブで閲覧しやすい形式に変換したものです。

最終更新日:2021-10-21